createdAt,value
2018-01-12T05:00:34.921Z,4.41
2018-01-12T05:01:00.424Z,4.41
2018-01-12T05:01:25.950Z,4.45
2018-01-12T05:01:51.512Z,4.45
2018-01-12T05:02:17.031Z,4.53
2018-01-12T05:02:42.523Z,4.48
2018-01-12T05:03:07.976Z,4.48
2018-01-12T05:03:33.462Z,4.44
2018-01-12T05:03:58.947Z,4.41
2018-01-12T05:04:24.484Z,4.48
2018-01-12T05:04:49.968Z,4.45
2018-01-12T05:05:58.840Z,4.45
2018-01-12T05:06:24.335Z,4.48
2018-01-12T05:06:49.809Z,4.45
2018-01-12T05:07:15.275Z,4.5
2018-01-12T05:07:40.761Z,4.49
2018-01-12T05:08:06.257Z,4.53
2018-01-12T05:08:31.781Z,4.48
2018-01-12T05:08:57.281Z,4.5
2018-01-12T05:09:22.806Z,4.5
2018-01-12T05:09:48.294Z,4.53
2018-01-12T05:10:13.807Z,4.44
2018-01-12T05:10:39.300Z,4.45
2018-01-12T05:11:04.787Z,4.45
2018-01-12T05:11:30.298Z,4.49
2018-01-12T05:11:55.839Z,4.45
2018-01-12T05:12:21.381Z,4.42
2018-01-12T05:12:46.839Z,4.5
2018-01-12T05:13:12.374Z,4.48
2018-01-12T05:13:37.835Z,4.52
2018-01-12T05:14:03.326Z,4.48
2018-01-12T05:14:28.851Z,4.42
2018-01-12T05:14:54.384Z,4.48
2018-01-12T05:15:19.878Z,4.5
2018-01-12T05:15:45.387Z,4.44
2018-01-12T05:16:10.863Z,4.48
2018-01-12T05:16:36.343Z,4.44
2018-01-12T05:17:01.826Z,4.42
2018-01-12T05:17:27.350Z,4.48
2018-01-12T05:17:52.866Z,4.48
2018-01-12T05:18:18.396Z,4.45
2018-01-12T05:18:43.888Z,4.41
2018-01-12T05:19:09.395Z,4.48
2018-01-12T05:19:34.858Z,4.44
2018-01-12T05:20:00.399Z,4.49
2018-01-12T05:20:25.875Z,4.48
2018-01-12T05:20:51.360Z,4.48
2018-01-12T05:21:16.816Z,4.45
2018-01-12T05:21:42.316Z,4.48
2018-01-12T05:22:07.821Z,4.42
2018-01-12T05:22:33.344Z,4.44
2018-01-12T05:22:58.804Z,4.48
2018-01-12T05:23:24.331Z,4.44
2018-01-12T05:23:49.805Z,4.5
2018-01-12T05:24:15.296Z,4.5
2018-01-12T05:24:40.787Z,4.48
2018-01-12T05:25:06.278Z,4.53
2018-01-12T05:25:31.778Z,4.44
2018-01-12T05:25:57.348Z,4.42
2018-01-12T05:26:22.833Z,4.45
2018-01-12T05:26:48.344Z,4.44
2018-01-12T05:27:13.810Z,4.49
2018-01-12T05:27:39.306Z,4.48
2018-01-12T05:28:04.778Z,4.49
2018-01-12T05:28:30.274Z,4.5
2018-01-12T05:28:55.747Z,4.48
2018-01-12T05:29:21.243Z,4.5
2018-01-12T05:29:46.781Z,4.45
2018-01-12T05:30:12.225Z,4.45
2018-01-12T05:30:37.768Z,4.53
2018-01-12T05:31:36.478Z,4.49
2018-01-12T05:32:01.979Z,4.44
2018-01-12T05:32:27.488Z,4.45
2018-01-12T05:32:52.979Z,4.42
2018-01-12T05:33:18.466Z,4.45
2018-01-12T05:33:43.972Z,4.49
2018-01-12T05:34:09.500Z,4.44
2018-01-12T05:34:35.005Z,4.44
2018-01-12T05:35:00.496Z,4.45
2018-01-12T05:35:25.991Z,4.49
2018-01-12T05:35:51.486Z,4.5
2018-01-12T05:36:17.015Z,4.42
2018-01-12T05:36:42.525Z,4.49
2018-01-12T05:37:08.051Z,4.49
2018-01-12T05:37:33.531Z,4.48
2018-01-12T05:37:59.003Z,4.4
2018-01-12T05:38:24.496Z,4.45
2018-01-12T05:38:49.991Z,4.49
2018-01-12T05:39:15.470Z,4.5
2018-01-12T05:39:40.975Z,4.41
2018-01-12T05:40:06.476Z,4.45
2018-01-12T05:41:10.245Z,4.49
2018-01-12T05:41:35.722Z,4.44
2018-01-12T05:42:01.230Z,4.44
2018-01-12T05:42:26.719Z,4.44
2018-01-12T05:42:52.206Z,4.49
2018-01-12T05:43:17.714Z,4.48
2018-01-12T05:43:43.188Z,4.48
2018-01-12T05:44:08.679Z,4.45
2018-01-12T05:44:34.159Z,4.48
2018-01-12T05:44:59.706Z,4.45
2018-01-12T05:45:25.223Z,4.5
2018-01-12T05:45:50.736Z,4.5
2018-01-12T05:46:16.214Z,4.55
2018-01-12T05:46:41.692Z,4.58
2018-01-12T05:47:07.161Z,4.6
2018-01-12T05:47:32.668Z,4.52
2018-01-12T05:48:41.383Z,4.55
2018-01-12T05:49:06.878Z,4.56
2018-01-12T05:49:32.377Z,4.52
2018-01-12T05:49:57.849Z,4.58
2018-01-12T05:50:23.303Z,4.5
2018-01-12T05:50:48.821Z,4.52
2018-01-12T05:51:14.292Z,4.58
2018-01-12T05:51:39.824Z,4.53
2018-01-12T05:52:05.327Z,4.55
2018-01-12T05:53:08.974Z,4.55
2018-01-12T05:53:34.466Z,4.53
2018-01-12T05:54:00.041Z,4.63
2018-01-12T05:54:25.542Z,4.53
2018-01-12T05:54:51.050Z,4.56
2018-01-12T05:55:16.512Z,4.56
2018-01-12T05:55:42.034Z,4.63
2018-01-12T05:56:07.529Z,4.53
2018-01-12T05:56:32.999Z,4.6
2018-01-12T05:56:58.473Z,4.62
2018-01-12T05:57:24.056Z,4.6
2018-01-12T05:57:49.549Z,4.55
2018-01-12T05:58:15.027Z,4.6
2018-01-12T05:58:40.494Z,4.62
2018-01-12T05:59:05.972Z,4.55
2018-01-12T05:59:31.487Z,4.66
2018-01-12T05:59:56.975Z,4.6
2018-01-12T06:00:22.498Z,4.58
2018-01-12T06:00:47.967Z,4.66
2018-01-12T06:01:13.461Z,4.59
2018-01-12T06:01:38.930Z,4.59
2018-01-12T06:02:04.451Z,4.6
2018-01-12T06:02:29.958Z,4.59
2018-01-12T06:02:55.455Z,4.62
2018-01-12T06:03:20.956Z,4.66
2018-01-12T06:03:46.433Z,4.6
2018-01-12T06:04:11.920Z,4.62
2018-01-12T06:04:37.386Z,4.62
2018-01-12T06:05:02.887Z,4.59
2018-01-12T06:05:28.366Z,4.58
2018-01-12T06:05:53.904Z,4.58
2018-01-12T06:06:19.424Z,4.62
2018-01-12T06:06:44.886Z,4.56
2018-01-12T06:07:10.379Z,4.66
2018-01-12T06:07:35.877Z,4.59
2018-01-12T06:08:01.669Z,4.62
2018-01-12T06:08:27.102Z,4.55
2018-01-12T06:08:52.574Z,4.66
2018-01-12T06:09:18.130Z,4.59
2018-01-12T06:09:43.623Z,4.62
2018-01-12T06:10:09.078Z,4.6
2018-01-12T06:10:34.589Z,4.68
2018-01-12T06:11:00.095Z,4.6
2018-01-12T06:11:25.569Z,4.6
2018-01-12T06:11:51.037Z,4.49
2018-01-12T06:12:16.523Z,4.59
2018-01-12T06:12:42.022Z,4.66
2018-01-12T06:13:07.519Z,4.6
2018-01-12T06:13:32.969Z,4.63
2018-01-12T06:13:58.465Z,4.62
2018-01-12T06:14:23.980Z,4.66
2018-01-12T06:14:49.460Z,4.59
2018-01-12T06:15:14.999Z,4.67
2018-01-12T06:16:23.714Z,4.59
2018-01-12T06:16:49.191Z,4.58
2018-01-12T06:17:14.703Z,4.6
2018-01-12T06:17:40.226Z,4.63
2018-01-12T06:18:05.781Z,4.58
2018-01-12T06:18:31.273Z,4.63
2018-01-12T06:18:56.730Z,4.59
2018-01-12T06:19:22.451Z,4.66
2018-01-12T06:19:47.889Z,4.67
2018-01-12T06:20:13.418Z,4.59
2018-01-12T06:20:38.909Z,4.63
2018-01-12T06:21:04.407Z,4.68
2018-01-12T06:21:29.919Z,4.62
2018-01-12T06:21:55.391Z,4.68
2018-01-12T06:22:20.875Z,4.67
2018-01-12T06:22:46.350Z,4.68
2018-01-12T06:23:11.914Z,4.63
2018-01-12T06:23:37.352Z,4.67
2018-01-12T06:24:02.872Z,4.68
2018-01-12T06:24:28.342Z,4.67
2018-01-12T06:24:53.851Z,4.7
2018-01-12T06:25:19.451Z,4.59
2018-01-12T06:25:44.975Z,4.6
2018-01-12T06:26:10.480Z,4.66
2018-01-12T06:26:35.940Z,4.62
2018-01-12T06:27:01.451Z,4.62
2018-01-12T06:27:26.944Z,4.63
2018-01-12T06:27:52.453Z,4.6
2018-01-12T06:28:17.927Z,4.67
2018-01-12T06:28:43.376Z,4.6
2018-01-12T06:29:08.843Z,4.58
2018-01-12T06:29:34.360Z,4.63
2018-01-12T06:29:59.842Z,4.6
2018-01-12T06:30:25.324Z,4.67
2018-01-12T06:30:50.835Z,4.67
2018-01-12T06:31:16.342Z,4.63
2018-01-12T06:31:41.847Z,4.7
2018-01-12T06:32:07.362Z,4.71
2018-01-12T06:32:32.842Z,4.58
2018-01-12T06:32:58.348Z,4.67
2018-01-12T06:33:23.866Z,4.71
2018-01-12T06:33:49.430Z,4.66
2018-01-12T06:34:14.934Z,4.67
2018-01-12T06:35:23.654Z,4.6
2018-01-12T06:35:49.155Z,4.68
2018-01-12T06:36:14.624Z,4.66
2018-01-12T06:36:40.134Z,4.6
2018-01-12T06:37:05.619Z,4.66
2018-01-12T06:38:09.207Z,4.66
2018-01-12T06:38:34.759Z,4.59
2018-01-12T06:39:00.205Z,4.62
2018-01-12T06:39:25.705Z,4.62
2018-01-12T06:39:51.195Z,4.63
2018-01-12T06:40:44.295Z,4.66
2018-01-12T06:41:09.801Z,4.67
2018-01-12T06:41:35.299Z,4.66
2018-01-12T06:42:00.790Z,4.63
2018-01-12T06:42:26.291Z,4.66
2018-01-12T06:42:51.822Z,4.62
2018-01-12T06:43:17.316Z,4.63
2018-01-12T06:43:42.784Z,4.6
2018-01-12T06:44:08.339Z,4.6
2018-01-12T06:44:33.820Z,4.62
2018-01-12T06:44:59.291Z,4.68
2018-01-12T06:45:24.780Z,4.66
2018-01-12T06:45:50.270Z,4.67
2018-01-12T06:46:15.819Z,4.6
2018-01-12T06:46:41.371Z,4.66
2018-01-12T06:47:06.820Z,4.67
2018-01-12T06:47:32.335Z,4.67
2018-01-12T06:48:41.056Z,4.66
2018-01-12T06:49:06.570Z,4.66
2018-01-12T06:49:32.049Z,4.62
2018-01-12T06:49:57.593Z,4.62
2018-01-12T06:50:23.121Z,4.58
2018-01-12T06:50:48.637Z,4.62
2018-01-12T06:51:14.116Z,4.67
2018-01-12T06:51:39.589Z,4.62
2018-01-12T06:52:05.097Z,4.62
2018-01-12T06:52:30.576Z,4.6
2018-01-12T06:53:24.005Z,4.62
2018-01-12T06:53:49.482Z,4.62
2018-01-12T06:54:14.999Z,4.73
2018-01-12T06:54:40.482Z,4.63
2018-01-12T06:55:05.951Z,4.56
2018-01-12T06:55:31.464Z,4.59
2018-01-12T06:55:56.942Z,4.6
2018-01-12T06:56:22.429Z,4.58
2018-01-12T06:56:47.931Z,4.59
2018-01-12T06:57:13.416Z,4.62
2018-01-12T06:58:11.950Z,4.62
2018-01-12T06:58:37.446Z,4.74
2018-01-12T06:59:02.935Z,4.58
2018-01-12T06:59:28.423Z,4.62
2018-01-12T06:59:53.978Z,4.6
2018-01-12T07:00:19.449Z,4.63
2018-01-12T07:00:44.953Z,4.68
2018-01-12T07:01:10.456Z,4.63
2018-01-12T07:01:35.957Z,4.68
2018-01-12T07:02:01.433Z,4.62
2018-01-12T07:02:26.898Z,4.62
2018-01-12T07:02:52.408Z,4.62
2018-01-12T07:03:17.877Z,4.62
2018-01-12T07:03:43.413Z,4.68
2018-01-12T07:04:08.874Z,4.67
2018-01-12T07:04:34.373Z,4.56
2018-01-12T07:04:59.917Z,4.6
2018-01-12T07:05:25.393Z,4.68
2018-01-12T07:05:50.901Z,4.59
2018-01-12T07:06:16.377Z,4.58
2018-01-12T07:06:41.878Z,4.63
2018-01-12T07:07:07.385Z,4.58
2018-01-12T07:07:32.888Z,4.63
2018-01-12T07:07:58.356Z,4.6
2018-01-12T07:09:01.971Z,4.62
2018-01-12T07:09:27.480Z,4.6
2018-01-12T07:09:52.967Z,4.66
2018-01-12T07:10:18.466Z,4.6
2018-01-12T07:10:43.948Z,4.6
2018-01-12T07:11:09.437Z,4.6
2018-01-12T07:11:34.879Z,4.66
2018-01-12T07:12:00.348Z,4.68
2018-01-12T07:12:25.868Z,4.62
2018-01-12T07:12:51.359Z,4.63
2018-01-12T07:13:16.895Z,4.67
2018-01-12T07:13:42.393Z,4.63
2018-01-12T07:14:07.872Z,4.62
2018-01-12T07:14:33.361Z,4.71
2018-01-12T07:14:58.886Z,4.66
2018-01-12T07:15:24.400Z,4.63
2018-01-12T07:16:22.907Z,4.59
2018-01-12T07:16:48.397Z,4.63
2018-01-12T07:17:13.885Z,4.67
2018-01-12T07:17:39.358Z,4.73
2018-01-12T07:18:27.651Z,4.63
2018-01-12T07:18:53.174Z,4.59
2018-01-12T07:19:18.660Z,4.58
2018-01-12T07:19:44.191Z,4.67
2018-01-12T07:20:37.633Z,4.66
2018-01-12T07:21:03.122Z,4.6
2018-01-12T07:21:28.664Z,4.6
2018-01-12T07:21:54.149Z,4.67
2018-01-12T07:22:19.625Z,4.66
2018-01-12T07:22:45.102Z,4.62
2018-01-12T07:23:10.612Z,4.62
2018-01-12T07:23:36.062Z,4.67
2018-01-12T07:24:01.556Z,4.66
2018-01-12T07:24:27.083Z,4.62
2018-01-12T07:24:52.546Z,4.63
2018-01-12T07:25:18.026Z,4.66
2018-01-12T07:25:43.529Z,4.71
2018-01-12T07:26:09.015Z,4.66
2018-01-12T07:26:34.461Z,4.68
2018-01-12T07:26:59.956Z,4.55
2018-01-12T07:27:25.459Z,4.66
2018-01-12T07:27:50.938Z,4.62
2018-01-12T07:28:16.399Z,4.6
2018-01-12T07:28:41.906Z,4.62
2018-01-12T07:29:07.405Z,4.56
2018-01-12T07:29:32.929Z,4.53
2018-01-12T07:29:58.380Z,4.62
2018-01-12T07:30:23.862Z,4.66
2018-01-12T07:31:27.650Z,4.55
2018-01-12T07:31:53.138Z,4.5
2018-01-12T07:32:18.652Z,4.5
2018-01-12T07:32:44.116Z,4.58
2018-01-12T07:33:09.598Z,4.5
2018-01-12T07:33:35.091Z,4.58
2018-01-12T07:34:00.646Z,4.58
2018-01-12T07:34:26.075Z,4.53
2018-01-12T07:34:51.572Z,4.56
2018-01-12T07:35:17.118Z,4.62
2018-01-12T07:35:42.602Z,4.63
2018-01-12T07:36:08.114Z,4.6
2018-01-12T07:36:33.615Z,4.67
2018-01-12T07:36:59.104Z,4.53
2018-01-12T07:37:24.651Z,4.66
2018-01-12T07:37:50.138Z,4.58
2018-01-12T07:38:15.697Z,4.73
2018-01-12T07:38:41.153Z,4.62
2018-01-12T07:39:06.659Z,4.63
2018-01-12T07:39:32.165Z,4.67
2018-01-12T07:40:30.840Z,4.71
2018-01-12T07:40:56.355Z,4.63
2018-01-12T07:41:21.806Z,4.58
2018-01-12T07:41:47.309Z,4.62
2018-01-12T07:42:12.801Z,4.62
2018-01-12T07:42:38.281Z,4.62
2018-01-12T07:43:03.742Z,4.7
2018-01-12T07:43:29.224Z,4.7
2018-01-12T07:43:54.715Z,4.75
2018-01-12T07:44:20.205Z,4.63
2018-01-12T07:44:45.698Z,4.7
2018-01-12T07:45:11.168Z,4.74
2018-01-12T07:45:36.683Z,4.75
2018-01-12T07:46:02.162Z,4.66
2018-01-12T07:46:27.656Z,4.68
2018-01-12T07:46:53.149Z,4.75
2018-01-12T07:47:18.636Z,4.73
2018-01-12T07:47:44.194Z,4.73
2018-01-12T07:48:09.723Z,4.66
2018-01-12T07:48:35.212Z,4.62
2018-01-12T07:49:33.242Z,4.6
2018-01-12T07:49:58.804Z,4.58
2018-01-12T07:50:24.310Z,4.67
2018-01-12T07:50:49.786Z,4.7
2018-01-12T07:51:15.262Z,4.62
2018-01-12T07:51:40.754Z,4.6
2018-01-12T07:52:06.266Z,4.53
2018-01-12T07:52:59.748Z,4.7
2018-01-12T07:53:25.237Z,4.7
2018-01-12T07:53:50.726Z,4.71
2018-01-12T07:54:16.182Z,4.62
2018-01-12T07:54:41.706Z,4.67
2018-01-12T07:55:07.172Z,4.7
2018-01-12T07:55:32.644Z,4.63
2018-01-12T07:55:58.125Z,4.66
2018-01-12T07:56:23.589Z,4.63
2018-01-12T07:56:49.071Z,4.6
2018-01-12T07:57:14.565Z,4.6
2018-01-12T07:57:40.036Z,4.68
2018-01-12T07:58:05.586Z,4.63
2018-01-12T07:58:31.034Z,4.6
2018-01-12T07:58:56.538Z,4.6
2018-01-12T07:59:22.027Z,4.63
2018-01-12T07:59:47.508Z,4.59
2018-01-12T08:00:12.994Z,4.6
2018-01-12T08:00:38.464Z,4.58
2018-01-12T08:01:03.939Z,4.62
2018-01-12T08:01:29.553Z,4.66
2018-01-12T08:01:54.976Z,4.62
2018-01-12T08:02:20.434Z,4.59
2018-01-12T08:02:45.920Z,4.66
2018-01-12T08:03:11.421Z,4.63
2018-01-12T08:03:36.931Z,4.59
2018-01-12T08:04:02.433Z,4.59
2018-01-12T08:04:27.911Z,4.67
2018-01-12T08:04:53.388Z,4.68
2018-01-12T08:05:18.881Z,4.59
2018-01-12T08:05:44.383Z,4.67
2018-01-12T08:06:09.890Z,4.66
2018-01-12T08:06:35.373Z,4.66
2018-01-12T08:07:28.803Z,4.58
2018-01-12T08:07:54.298Z,4.6
2018-01-12T08:08:19.803Z,4.55
2018-01-12T08:08:45.319Z,4.55
2018-01-12T08:09:10.761Z,4.6
2018-01-12T08:10:04.170Z,4.63
2018-01-12T08:10:29.652Z,4.59
2018-01-12T08:10:55.134Z,4.66
2018-01-12T08:11:20.641Z,4.62
2018-01-12T08:11:46.162Z,4.58
2018-01-12T08:12:11.640Z,4.58
2018-01-12T08:12:37.085Z,4.66
2018-01-12T08:13:25.389Z,4.59
2018-01-12T08:13:50.890Z,4.63
2018-01-12T08:14:16.381Z,4.62
2018-01-12T08:14:41.880Z,4.59
2018-01-12T08:15:07.360Z,4.62
2018-01-12T08:15:32.839Z,4.62
2018-01-12T08:15:58.332Z,4.56
2018-01-12T08:16:23.819Z,4.63
2018-01-12T08:16:49.357Z,4.66
2018-01-12T08:17:14.877Z,4.67
2018-01-12T08:17:40.351Z,4.66
2018-01-12T08:18:05.864Z,4.67
2018-01-12T08:19:09.786Z,4.73
2018-01-12T08:19:35.281Z,4.62
2018-01-12T08:20:00.769Z,4.6
2018-01-12T08:20:26.245Z,4.6
2018-01-12T08:20:51.745Z,4.58
2018-01-12T08:21:17.241Z,4.6
2018-01-12T08:21:42.732Z,4.58
2018-01-12T08:22:08.193Z,4.56
2018-01-12T08:22:33.684Z,4.71
2018-01-12T08:22:59.167Z,4.63
2018-01-12T08:23:24.670Z,4.7
2018-01-12T08:23:50.164Z,4.55
2018-01-12T08:25:00.048Z,4.7
2018-01-12T08:25:25.534Z,4.68
2018-01-12T08:25:51.039Z,4.66
2018-01-12T08:26:16.519Z,4.67
2018-01-12T08:26:41.988Z,4.62
2018-01-12T08:27:07.479Z,4.7
2018-01-12T08:27:32.982Z,4.68
2018-01-12T08:27:58.471Z,4.6
2018-01-12T08:28:23.925Z,4.6
2018-01-12T08:28:49.457Z,4.6
2018-01-12T08:29:14.958Z,4.62
2018-01-12T08:29:40.474Z,4.6
2018-01-12T08:30:05.923Z,4.6
2018-01-12T08:30:31.439Z,4.67
2018-01-12T08:30:56.933Z,4.67
2018-01-12T08:31:22.392Z,4.62
2018-01-12T08:31:47.860Z,4.67
2018-01-12T08:32:56.560Z,4.6
2018-01-12T08:33:22.058Z,4.66
2018-01-12T08:33:47.564Z,4.67
2018-01-12T08:34:13.066Z,4.62
2018-01-12T08:34:38.570Z,4.6
2018-01-12T08:35:04.055Z,4.62
2018-01-12T08:35:29.563Z,4.56
2018-01-12T08:35:55.072Z,4.6
2018-01-12T08:36:20.578Z,4.63
2018-01-12T08:36:46.036Z,4.67
2018-01-12T08:37:11.547Z,4.66
2018-01-12T08:37:37.037Z,4.63
2018-01-12T08:38:02.525Z,4.63
2018-01-12T08:38:28.020Z,4.62
2018-01-12T08:38:53.496Z,4.71
2018-01-12T08:39:18.987Z,4.66
2018-01-12T08:39:44.492Z,4.59
2018-01-12T08:40:09.955Z,4.63
2018-01-12T08:40:35.485Z,4.68
2018-01-12T08:41:00.968Z,4.62
2018-01-12T08:41:26.479Z,4.66
2018-01-12T08:41:51.988Z,4.62
2018-01-12T08:42:17.480Z,4.59
2018-01-12T08:42:42.973Z,4.62
2018-01-12T08:43:08.442Z,4.68
2018-01-12T08:43:33.977Z,4.63
2018-01-12T08:43:59.497Z,4.6
2018-01-12T08:44:25.056Z,4.71
2018-01-12T08:44:50.554Z,4.63
2018-01-12T08:45:16.022Z,4.6
2018-01-12T08:45:41.505Z,4.62
2018-01-12T08:46:07.027Z,4.63
2018-01-12T08:46:32.493Z,4.67
2018-01-12T08:47:20.807Z,4.59
2018-01-12T08:47:46.318Z,4.67
2018-01-12T08:48:11.846Z,4.77
2018-01-12T08:48:37.423Z,4.59
2018-01-12T08:49:02.813Z,4.6
2018-01-12T08:49:28.316Z,4.62
2018-01-12T08:49:53.807Z,4.63
2018-01-12T08:50:19.272Z,4.59
2018-01-12T08:50:44.776Z,4.62
2018-01-12T08:51:10.230Z,4.63
2018-01-12T08:51:35.732Z,4.66
2018-01-12T08:52:01.240Z,4.63
2018-01-12T08:52:26.714Z,4.6
2018-01-12T08:52:52.185Z,4.58
2018-01-12T08:53:17.640Z,4.6
2018-01-12T08:53:43.159Z,4.62
2018-01-12T08:54:08.668Z,4.62
2018-01-12T08:54:34.185Z,4.63
2018-01-12T08:54:59.662Z,4.62
2018-01-12T08:55:25.153Z,4.62
2018-01-12T08:55:50.638Z,4.63
2018-01-12T08:56:16.109Z,4.6
2018-01-12T08:56:41.581Z,4.62
2018-01-12T08:57:07.091Z,4.67
2018-01-12T08:58:00.556Z,4.66
2018-01-12T08:58:26.040Z,4.71
2018-01-12T08:58:51.516Z,4.58
2018-01-12T08:59:17.043Z,4.68
2018-01-12T08:59:42.545Z,4.74
2018-01-12T09:00:08.032Z,4.7
2018-01-12T09:00:33.518Z,4.7
2018-01-12T09:00:59.023Z,4.66
2018-01-12T09:01:24.548Z,4.66
2018-01-12T09:01:50.027Z,4.62
2018-01-12T09:02:15.488Z,4.63
2018-01-12T09:02:40.960Z,4.55
2018-01-12T09:03:06.457Z,4.7
2018-01-12T09:03:31.917Z,4.59
2018-01-12T09:03:57.394Z,4.66
2018-01-12T09:04:22.869Z,4.66
2018-01-12T09:04:48.355Z,4.6
2018-01-12T09:05:13.886Z,4.66
2018-01-12T09:05:39.364Z,4.67
2018-01-12T09:06:04.841Z,4.63
2018-01-12T09:06:30.296Z,4.62
2018-01-12T09:06:55.786Z,4.6
2018-01-12T09:07:21.304Z,4.67
2018-01-12T09:07:46.801Z,4.58
2018-01-12T09:08:35.115Z,4.66
2018-01-12T09:09:00.638Z,4.59
2018-01-12T09:09:26.152Z,4.66
2018-01-12T09:09:51.626Z,4.66
2018-01-12T09:10:17.178Z,4.56
2018-01-12T09:10:42.680Z,4.62
2018-01-12T09:11:08.139Z,4.58
2018-01-12T09:11:33.653Z,4.63
2018-01-12T09:11:59.124Z,4.62
2018-01-12T09:12:24.602Z,4.7
2018-01-12T09:13:23.102Z,4.58
2018-01-12T09:13:48.597Z,4.6
2018-01-12T09:14:14.068Z,4.67
2018-01-12T09:14:39.558Z,4.63
2018-01-12T09:15:48.268Z,4.73
2018-01-12T09:16:13.770Z,4.68
2018-01-12T09:16:39.244Z,4.6
2018-01-12T09:17:04.758Z,4.73
2018-01-12T09:17:30.231Z,4.71
2018-01-12T09:17:55.718Z,4.68
2018-01-12T09:18:21.221Z,4.75
2018-01-12T09:18:46.702Z,4.68
2018-01-12T09:19:12.165Z,4.7
2018-01-12T09:19:37.713Z,4.78
2018-01-12T09:20:03.202Z,4.68
2018-01-12T09:20:28.693Z,4.77
2018-01-12T09:20:54.149Z,4.73
2018-01-12T09:21:19.663Z,4.78
2018-01-12T09:21:45.154Z,4.86
2018-01-12T09:22:10.628Z,4.7
2018-01-12T09:22:36.172Z,4.8
2018-01-12T09:23:01.701Z,4.78
2018-01-12T09:23:27.181Z,4.71
2018-01-12T09:23:52.693Z,4.7
2018-01-12T09:24:18.171Z,4.71
2018-01-12T09:24:43.643Z,4.75
2018-01-12T09:25:09.113Z,4.77
2018-01-12T09:25:34.619Z,4.75
2018-01-12T09:26:00.096Z,4.71
2018-01-12T09:26:25.576Z,4.73
2018-01-12T09:26:51.090Z,4.7
2018-01-12T09:27:16.587Z,4.74
2018-01-12T09:27:42.108Z,4.74
2018-01-12T09:28:07.562Z,4.78
2018-01-12T09:28:33.060Z,4.75
2018-01-12T09:28:58.555Z,4.73
2018-01-12T09:29:24.049Z,4.73
2018-01-12T09:29:49.553Z,4.75
2018-01-12T09:30:15.018Z,4.78
2018-01-12T09:30:40.534Z,4.68
2018-01-12T09:31:06.007Z,4.73
2018-01-12T09:31:31.532Z,4.68
2018-01-12T09:31:56.989Z,4.74
2018-01-12T09:32:22.493Z,4.73
2018-01-12T09:32:48.038Z,4.8
2018-01-12T09:33:13.537Z,4.82
2018-01-12T09:33:39.045Z,4.77
2018-01-12T09:34:04.587Z,4.82
2018-01-12T09:34:30.070Z,4.86
2018-01-12T09:34:55.588Z,4.82
2018-01-12T09:35:21.059Z,4.86
2018-01-12T09:35:46.538Z,4.84
2018-01-12T09:36:50.135Z,4.89
2018-01-12T09:37:15.633Z,4.92
2018-01-12T09:37:41.137Z,4.92
2018-01-12T09:38:06.603Z,4.9
2018-01-12T09:38:32.102Z,4.89
2018-01-12T09:38:57.595Z,4.93
2018-01-12T09:39:23.105Z,4.92
2018-01-12T09:39:48.604Z,4.97
2018-01-12T09:40:14.127Z,4.87
2018-01-12T09:40:39.636Z,4.86
2018-01-12T09:41:05.103Z,4.87
2018-01-12T09:41:30.619Z,4.87
2018-01-12T09:41:56.151Z,4.93
2018-01-12T09:42:21.674Z,4.96
2018-01-12T09:42:47.171Z,4.9
2018-01-12T09:43:12.665Z,4.9
2018-01-12T09:43:38.176Z,4.93
2018-01-12T09:44:03.671Z,4.93
2018-01-12T09:44:29.168Z,4.93
2018-01-12T09:44:54.622Z,4.9
2018-01-12T09:45:20.135Z,4.93
2018-01-12T09:45:45.611Z,4.9
2018-01-12T09:46:11.110Z,4.92
2018-01-12T09:46:36.652Z,4.93
2018-01-12T09:47:02.159Z,4.92
2018-01-12T09:47:27.600Z,4.87
2018-01-12T09:47:53.131Z,4.84
2018-01-12T09:48:18.609Z,4.86
2018-01-12T09:48:44.100Z,4.96
2018-01-12T09:49:09.559Z,4.87
2018-01-12T09:49:35.022Z,4.93
2018-01-12T09:50:00.553Z,4.94
2018-01-12T09:50:26.053Z,4.99
2018-01-12T09:50:51.536Z,4.84
2018-01-12T09:51:17.029Z,4.93
2018-01-12T09:51:42.517Z,4.93
2018-01-12T09:52:51.391Z,4.9
2018-01-12T09:53:16.888Z,4.9
2018-01-12T09:53:42.377Z,4.94
2018-01-12T09:54:07.854Z,4.84
2018-01-12T09:54:33.336Z,4.97
2018-01-12T09:54:58.870Z,4.94
2018-01-12T09:55:24.355Z,4.96
2018-01-12T09:55:49.827Z,4.97
2018-01-12T09:56:15.318Z,4.87
2018-01-12T09:56:40.786Z,4.97
2018-01-12T09:57:06.339Z,4.96
2018-01-12T09:57:31.869Z,4.93
2018-01-12T09:57:57.405Z,4.94
2018-01-12T09:58:22.905Z,4.96
2018-01-12T09:58:48.396Z,4.97
2018-01-12T09:59:13.910Z,4.96
2018-01-12T09:59:39.416Z,4.94
2018-01-12T10:00:04.897Z,4.96
2018-01-12T10:00:30.375Z,4.93
2018-01-12T10:00:55.850Z,4.94
2018-01-12T10:01:21.393Z,4.99
2018-01-12T10:01:46.880Z,4.93
2018-01-12T10:02:12.361Z,4.92
2018-01-12T10:02:37.833Z,4.94
2018-01-12T10:03:03.330Z,4.94
2018-01-12T10:03:28.834Z,4.94
2018-01-12T10:03:54.372Z,4.94
2018-01-12T10:04:19.877Z,4.96
2018-01-12T10:04:45.382Z,4.99
2018-01-12T10:05:10.861Z,4.93
2018-01-12T10:05:36.340Z,4.86
2018-01-12T10:06:01.851Z,4.94
2018-01-12T10:06:27.418Z,4.94
2018-01-12T10:07:25.933Z,4.92
2018-01-12T10:07:51.434Z,4.94
2018-01-12T10:08:16.926Z,4.96
2018-01-12T10:08:42.402Z,4.86
2018-01-12T10:09:07.893Z,4.84
2018-01-12T10:09:33.393Z,4.82
2018-01-12T10:09:58.871Z,4.82
2018-01-12T10:10:24.352Z,4.86
2018-01-12T10:10:49.840Z,4.82
2018-01-12T10:11:15.312Z,4.78
2018-01-12T10:11:40.849Z,4.78
2018-01-12T10:12:06.381Z,4.77
2018-01-12T10:12:31.891Z,4.75
2018-01-12T10:12:57.417Z,4.77
2018-01-12T10:13:22.932Z,4.77
2018-01-12T10:13:48.416Z,4.84
2018-01-12T10:14:13.918Z,4.84
2018-01-12T10:14:39.382Z,4.86
2018-01-12T10:15:04.850Z,4.87
2018-01-12T10:15:30.343Z,4.78
2018-01-12T10:16:40.051Z,4.8
2018-01-12T10:17:05.534Z,4.82
2018-01-12T10:17:31.040Z,4.89
2018-01-12T10:17:56.525Z,4.94
2018-01-12T10:18:22.028Z,4.84
2018-01-12T10:18:47.509Z,4.93
2018-01-12T10:19:12.988Z,4.86
2018-01-12T10:19:38.499Z,4.87
2018-01-12T10:20:03.997Z,4.94
2018-01-12T10:20:29.500Z,4.89
2018-01-12T10:21:22.935Z,4.9
2018-01-12T10:21:48.417Z,4.9
2018-01-12T10:22:13.883Z,4.82
2018-01-12T10:22:39.412Z,4.92
2018-01-12T10:23:04.918Z,4.92
2018-01-12T10:23:30.436Z,4.94
2018-01-12T10:23:55.978Z,4.9
2018-01-12T10:24:21.443Z,4.9
2018-01-12T10:24:46.942Z,4.92
2018-01-12T10:25:12.428Z,4.84
2018-01-12T10:25:37.895Z,4.86
2018-01-12T10:26:03.441Z,4.92
2018-01-12T10:26:28.888Z,4.93
2018-01-12T10:27:17.195Z,4.9
2018-01-12T10:27:42.681Z,4.92
2018-01-12T10:28:08.164Z,4.96
2018-01-12T10:28:33.655Z,4.87
2018-01-12T10:28:59.173Z,4.9
2018-01-12T10:29:24.676Z,4.87
2018-01-12T10:29:50.132Z,4.89
2018-01-12T10:30:15.641Z,4.9
2018-01-12T10:30:41.144Z,4.93
2018-01-12T10:31:06.632Z,4.84
2018-01-12T10:31:32.139Z,4.99
2018-01-12T10:31:57.615Z,4.87
2018-01-12T10:32:23.090Z,4.97
2018-01-12T10:32:48.625Z,4.87
2018-01-12T10:33:14.114Z,4.93
2018-01-12T10:33:39.620Z,4.84
2018-01-12T10:34:05.117Z,4.94
2018-01-12T10:34:30.575Z,4.92
2018-01-12T10:34:56.135Z,4.89
2018-01-12T10:35:21.603Z,4.84
2018-01-12T10:36:15.041Z,4.97
2018-01-12T10:36:40.528Z,4.94
2018-01-12T10:37:06.025Z,4.93
2018-01-12T10:37:31.519Z,4.84
2018-01-12T10:37:57.025Z,5.02
2018-01-12T10:38:22.550Z,4.93
2018-01-12T10:38:48.052Z,4.86
2018-01-12T10:39:13.546Z,4.94
2018-01-12T10:39:39.053Z,4.94
2018-01-12T10:40:04.554Z,4.97
2018-01-12T10:40:30.086Z,4.93
2018-01-12T10:40:55.591Z,4.94
2018-01-12T10:41:21.108Z,4.93
2018-01-12T10:41:46.586Z,4.93
2018-01-12T10:42:12.055Z,4.93
2018-01-12T10:42:37.619Z,4.93
2018-01-12T10:43:03.085Z,4.96
2018-01-12T10:43:28.565Z,4.93
2018-01-12T10:43:54.023Z,4.94
2018-01-12T10:44:19.515Z,4.93
2018-01-12T10:44:45.000Z,4.92
2018-01-12T10:45:10.492Z,4.99
2018-01-12T10:45:36.019Z,4.94
2018-01-12T10:46:01.485Z,4.96
2018-01-12T10:46:27.006Z,4.94
2018-01-12T10:46:52.561Z,4.99
2018-01-12T10:47:18.084Z,4.97
2018-01-12T10:47:43.606Z,4.93
2018-01-12T10:48:09.120Z,4.89
2018-01-12T10:48:34.591Z,4.93
2018-01-12T10:49:00.094Z,4.9
2018-01-12T10:49:25.588Z,4.93
2018-01-12T10:49:51.098Z,4.94
2018-01-12T10:50:16.604Z,4.87
2018-01-12T10:50:42.128Z,4.9
2018-01-12T10:51:07.607Z,4.86
2018-01-12T10:52:16.324Z,4.94
2018-01-12T10:52:41.805Z,4.89
2018-01-12T10:53:07.277Z,4.93
2018-01-12T10:53:32.801Z,4.92
2018-01-12T10:53:58.262Z,4.93
2018-01-12T10:54:23.758Z,4.93
2018-01-12T10:54:49.262Z,4.96
2018-01-12T10:55:14.722Z,4.94
2018-01-12T10:55:40.263Z,4.82
2018-01-12T10:56:05.804Z,4.92
2018-01-12T10:56:31.283Z,4.94
2018-01-12T10:56:56.818Z,4.97
2018-01-12T10:57:22.349Z,4.94
2018-01-12T10:57:47.879Z,4.97
2018-01-12T10:58:13.321Z,4.93
2018-01-12T10:58:38.801Z,4.89
2018-01-12T10:59:04.309Z,5.04
2018-01-12T10:59:29.830Z,4.94
2018-01-12T10:59:55.336Z,4.94
2018-01-12T11:00:20.825Z,4.99
2018-01-12T11:00:46.286Z,4.97
2018-01-12T11:01:11.804Z,5
2018-01-12T11:01:37.298Z,4.96
2018-01-12T11:02:02.829Z,5.04
2018-01-12T11:02:28.320Z,4.96
2018-01-12T11:03:37.030Z,5.05
2018-01-12T11:04:02.503Z,5.05
2018-01-12T11:04:28.028Z,5.08